Terminal Aerodrome Forecast
Issued by NWS Missoula, MT

Home | Current Version | Previous Version | Text Only | Print | Product List | Glossary On
Versions: 1 2 3 4 5 6 7 8 9 10 11 12 13
000
FTUS45 KMSO 292324
TAFGPI
TAF
KGPI 292324Z 3000/3024 18010G16KT P6SM SCT110
     FM300300 VRB03KT P6SM SKC
     FM302000 19010KT P6SM SKC=

USA.gov is the U.S. government's official web portal to all federal, state and local government web resources and services.